Time;durP1;ratioP1;P1;durP2;ratioP2;P2;SDS_P1;SDS_P2;PMS_P1;PMS_P2;Temp;Humidity;BMP_temperature;BMP_pressure;BME280_temperature;BME280_humidity;BME280_pressure;Samples;Min_cycle;Max_cycle;Signal;HPM_P1;HPM_P2
2021/04/28 00:00:02;;;;;;;12.03;8.73;;;;;;;3.03;100.00;99169.04;1815084;77;21437;-60
2021/04/28 00:02:33;;;;;;;14.83;8.23;;;;;;;3.04;100.00;99170.80;1814788;77;20994;-60
2021/04/28 00:05:09;;;;;;;11.18;8.13;;;;;;;3.03;100.00;99164.71;1814705;77;21364;-61
2021/04/28 00:07:41;;;;;;;13.22;9.35;;;;;;;3.01;100.00;99173.34;1814547;77;21489;-60
2021/04/28 00:10:15;;;;;;;11.97;8.95;;;;;;;2.97;100.00;99161.95;1814959;77;21461;-60
2021/04/28 00:12:46;;;;;;;11.33;8.98;;;;;;;2.94;100.00;99163.19;1814705;77;20923;-60
2021/04/28 00:15:21;;;;;;;12.45;8.73;;;;;;;2.91;100.00;99166.14;1814972;77;20903;-61
2021/04/28 00:17:54;;;;;;;13.20;9.33;;;;;;;2.91;100.00;99164.42;1810052;77;21362;-61
2021/04/28 00:20:25;;;;;;;17.70;9.20;;;;;;;2.91;100.00;99162.23;1805813;79;21026;-60
2021/04/28 00:22:56;;;;;;;11.90;8.70;;;;;;;2.89;100.00;99160.02;1805880;78;20966;-61
2021/04/28 00:25:30;;;;;;;13.95;8.95;;;;;;;2.84;100.00;99165.11;1802137;79;20918;-61
2021/04/28 00:28:04;;;;;;;15.13;9.63;;;;;;;2.80;100.00;99164.55;1805675;78;20907;-60
2021/04/28 00:30:38;;;;;;;12.55;8.93;;;;;;;2.79;100.00;99164.97;1805642;78;21194;-61
2021/04/28 00:33:09;;;;;;;13.85;9.90;;;;;;;2.76;100.00;99158.38;1805715;78;20967;-61
2021/04/28 00:35:41;;;;;;;14.25;9.93;;;;;;;2.74;100.00;99155.28;1805713;78;21025;-60
2021/04/28 00:38:13;;;;;;;12.70;9.30;;;;;;;2.72;100.00;99163.05;1805760;79;20922;-60
2021/04/28 00:40:46;;;;;;;13.68;10.55;;;;;;;2.76;100.00;99158.80;1805556;79;21069;-61
2021/04/28 00:43:18;;;;;;;12.28;9.38;;;;;;;2.77;100.00;99164.47;1805793;78;21406;-61
2021/04/28 00:45:49;;;;;;;;;;;;;;;2.74;100.00;99159.19;1808233;78;20894;-61
2021/04/28 00:48:23;;;;;;;13.28;9.33;;;;;;;2.72;100.00;99155.23;1805605;78;20130;-60
2021/04/28 00:50:55;;;;;;;11.73;9.05;;;;;;;2.67;100.00;99159.88;1805629;79;21619;-61
2021/04/28 00:53:27;;;;;;;13.58;9.83;;;;;;;2.61;100.00;99154.52;1805774;78;20978;-60
2021/04/28 00:55:59;;;;;;;;;;;;;;;2.57;100.00;99155.28;1808206;79;21452;-61
2021/04/28 00:58:30;;;;;;;13.85;9.78;;;;;;;2.53;100.00;99156.50;1805634;78;20487;-60
2021/04/28 01:01:01;;;;;;;13.08;10.25;;;;;;;2.49;100.00;99158.56;1805571;78;20911;-60
2021/04/28 01:03:35;;;;;;;16.35;9.90;;;;;;;2.44;100.00;99164.08;1805575;78;21811;-61
2021/04/28 01:06:08;;;;;;;11.60;9.30;;;;;;;2.38;100.00;99156.52;1805548;78;20923;-60
2021/04/28 01:08:39;;;;;;;15.83;11.10;;;;;;;2.33;100.00;99158.97;1805902;78;22279;-60
2021/04/28 01:11:11;;;;;;;13.60;10.10;;;;;;;2.31;100.00;99159.35;1754291;78;21592;-60
2021/04/28 01:13:46;;;;;;;13.43;10.00;;;;;;;2.29;100.00;99159.73;1802551;78;21485;-60
2021/04/28 01:16:17;;;;;;;17.07;10.65;;;;;;;2.30;100.00;99151.50;1805765;78;20926;-61
2021/04/28 01:18:54;;;;;;;15.83;10.38;;;;;;;2.29;100.00;99154.53;1782418;79;21457;-60
2021/04/28 01:21:28;;;;;;;12.73;10.23;;;;;;;2.27;100.00;99149.70;1805616;78;21370;-61
2021/04/28 01:23:59;;;;;;;16.55;10.70;;;;;;;2.23;100.00;99149.16;1805806;79;20943;-61
2021/04/28 01:26:33;;;;;;;12.20;9.15;;;;;;;2.21;100.00;99149.54;1782329;79;20926;-61
2021/04/28 01:29:05;;;;;;;13.78;9.65;;;;;;;2.19;100.00;99152.10;1805681;78;20891;-61
2021/04/28 01:31:39;;;;;;;13.43;9.98;;;;;;;2.17;100.00;99151.17;1805755;78;20903;-60
2021/04/28 01:34:11;;;;;;;12.47;9.77;;;;;;;2.18;100.00;99152.06;1805987;78;21233;-61
2021/04/28 01:36:43;;;;;;;13.68;10.25;;;;;;;2.20;100.00;99155.58;1782163;79;21096;-60
2021/04/28 01:39:16;;;;;;;12.20;9.05;;;;;;;2.25;100.00;99157.01;1805778;78;20998;-60
2021/04/28 01:41:49;;;;;;;18.17;10.08;;;;;;;2.29;100.00;99164.06;1805595;78;21549;-61
2021/04/28 01:44:21;;;;;;;;;;;;;;;2.28;100.00;99157.09;1808380;79;20915;-60
2021/04/28 01:46:53;;;;;;;13.00;9.73;;;;;;;2.24;100.00;99156.55;1781295;79;22326;-61
2021/04/28 01:49:26;;;;;;;14.07;10.10;;;;;;;2.20;100.00;99166.88;1781113;79;20914;-61
2021/04/28 01:51:58;;;;;;;13.72;10.03;;;;;;;2.18;100.00;99168.55;1805804;78;20934;-61
2021/04/28 01:54:29;;;;;;;13.75;10.85;;;;;;;2.20;100.00;99169.90;1781185;78;20879;-61
2021/04/28 01:57:00;;;;;;;20.35;11.68;;;;;;;2.17;100.00;99174.60;1805659;79;20907;-60
2021/04/28 01:59:36;;;;;;;21.15;13.22;;;;;;;2.14;100.00;99170.61;1805374;79;21511;-61
2021/04/28 02:02:09;;;;;;;25.60;14.40;;;;;;;2.14;100.00;99164.11;1763540;79;20935;-61
2021/04/28 02:04:43;;;;;;;20.37;14.58;;;;;;;2.13;100.00;99167.97;1805750;79;20935;-61
2021/04/28 02:07:15;;;;;;;20.08;13.48;;;;;;;2.11;100.00;99173.55;1781426;78;20946;-61
2021/04/28 02:09:44;;;;;;;19.70;13.88;;;;;;;2.07;100.00;99171.28;1805766;79;20883;-61
2021/04/28 02:12:16;;;;;;;;;;;;;;;2.05;100.00;99172.97;1807933;78;21551;-60
2021/04/28 02:14:50;;;;;;;21.35;14.18;;;;;;;2.05;100.00;99173.38;1805654;78;20503;-60
2021/04/28 02:17:24;;;;;;;14.20;11.05;;;;;;;2.01;100.00;99176.73;1805242;79;20895;-61
2021/04/28 02:19:56;;;;;;;13.32;10.63;;;;;;;1.95;100.00;99182.66;1802798;79;20928;-61
2021/04/28 02:22:29;;;;;;;12.43;10.32;;;;;;;1.91;100.00;99187.30;1707484;82;21090;-62
2021/04/28 02:25:10;;;;;;;12.18;9.80;;;;;;;1.92;100.00;99185.58;1736547;82;22221;-61
2021/04/28 02:27:45;;;;;;;15.13;10.03;;;;;;;1.91;100.00;99186.00;1727440;82;21113;-62
2021/04/28 02:30:24;;;;;;;14.80;11.43;;;;;;;1.93;100.00;99191.25;1736957;82;20959;-69
2021/04/28 02:32:55;;;;;;;16.45;11.20;;;;;;;1.96;100.00;99187.44;1727875;82;21485;-60
2021/04/28 02:35:44;;;;;;;16.82;11.97;;;;;;;1.98;100.00;99198.34;1736879;82;21057;-60
2021/04/28 02:38:35;;;;;;;12.37;10.03;;;;;;;1.99;100.00;99198.81;1724909;82;22370;-60
2021/04/28 02:41:08;;;;;;;15.15;10.05;;;;;;;1.98;100.00;99195.74;1736693;82;21121;-60
2021/04/28 02:43:44;;;;;;;12.15;9.75;;;;;;;1.96;100.00;99200.02;1727801;82;20920;-60
2021/04/28 02:46:16;;;;;;;12.88;9.63;;;;;;;1.97;100.00;99208.29;1736988;82;21117;-60
2021/04/28 02:48:49;;;;;;;11.85;9.23;;;;;;;1.99;100.00;99206.61;1795780;79;21184;-60
2021/04/28 02:51:31;;;;;;;15.78;9.63;;;;;;;2.03;100.00;99213.67;1750753;79;21399;-59
2021/04/28 02:54:02;;;;;;;12.80;9.35;;;;;;;2.07;100.00;99213.34;1727758;82;21085;-61
2021/04/28 02:56:34;;;;;;;13.78;9.58;;;;;;;2.08;100.00;99215.98;1737030;82;21514;-67
2021/04/28 02:59:05;;;;;;;12.93;9.98;;;;;;;2.11;100.00;99215.19;1727763;82;20912;-63
2021/04/28 03:01:36;;;;;;;14.15;9.53;;;;;;;2.13;100.00;99207.88;1716407;82;21070;-59
2021/04/28 03:04:08;;;;;;;13.60;9.97;;;;;;;2.17;100.00;99212.33;1774844;80;21382;-60
2021/04/28 03:06:55;;;;;;;15.93;12.03;;;;;;;2.30;100.00;99225.27;1807814;77;27951;-59
2021/04/28 03:09:27;;;;;;;14.90;10.93;;;;;;;2.32;100.00;99221.41;1782065;79;21558;-64
2021/04/28 03:11:58;;;;;;;14.60;10.82;;;;;;;2.43;100.00;99224.80;1783330;79;21158;-60
2021/04/28 03:14:32;;;;;;;14.63;10.82;;;;;;;2.50;100.00;99228.02;1783444;79;21061;-61
2021/04/28 03:17:03;;;;;;;16.05;11.18;;;;;;;2.57;100.00;99225.58;1816925;78;20978;-60
2021/04/28 03:19:35;;;;;;;;;;;;;;;2.60;100.00;99226.97;1819634;78;21017;-60
2021/04/28 03:22:07;;;;;;;15.48;10.78;;;;;;;2.62;100.00;99233.09;1816942;79;20279;-61
2021/04/28 03:24:37;;;;;;;16.23;10.75;;;;;;;2.66;100.00;99229.73;1783274;78;22303;-61
2021/04/28 03:27:12;;;;;;;15.98;10.78;;;;;;;2.73;100.00;99236.44;1813421;79;21006;-61
2021/04/28 03:29:45;;;;;;;16.17;10.68;;;;;;;2.77;100.00;99233.08;1784409;79;21460;-60
2021/04/28 03:32:15;;;;;;;17.45;11.48;;;;;;;2.80;100.00;99230.97;1784826;80;20915;-60
2021/04/28 03:34:48;;;;;;;17.15;11.08;;;;;;;2.86;100.00;99238.09;1782813;79;21215;-60
2021/04/28 03:37:23;;;;;;;18.37;11.80;;;;;;;2.91;100.00;99242.58;1784116;79;22271;-60
2021/04/28 03:39:52;;;;;;;16.85;11.15;;;;;;;2.96;100.00;99235.76;1784369;80;20997;-60
2021/04/28 03:42:23;;;;;;;15.90;10.43;;;;;;;3.01;100.00;99241.97;1762622;80;20962;-60
2021/04/28 03:44:56;;;;;;;17.37;11.63;;;;;;;3.05;100.00;99244.23;1785110;79;21144;-61
2021/04/28 03:47:27;;;;;;;14.78;10.40;;;;;;;3.08;100.00;99242.58;1785350;80;21575;-60
2021/04/28 03:49:59;;;;;;;16.30;10.40;;;;;;;3.12;100.00;99244.42;1784800;80;21209;-60
2021/04/28 03:52:31;;;;;;;;;;;;;;;3.15;100.00;99237.98;1765895;80;21065;-60
2021/04/28 03:55:13;;;;;;;17.07;10.13;;;;;;;3.22;100.00;99243.34;1783794;79;20299;-62
2021/04/28 03:57:44;;;;;;;17.27;11.35;;;;;;;3.25;100.00;99245.60;1784245;79;21168;-61
2021/04/28 04:00:17;;;;;;;15.70;10.35;;;;;;;3.29;100.00;99247.44;1783877;79;21516;-60
2021/04/28 04:02:49;;;;;;;15.63;11.10;;;;;;;3.36;100.00;99246.77;1783350;79;21207;-60
2021/04/28 04:05:39;;;;;;;17.15;11.48;;;;;;;3.42;100.00;99253.86;1780177;79;21006;-62
2021/04/28 04:08:11;;;;;;;17.20;10.93;;;;;;;3.50;100.00;99252.31;1773054;79;21179;-61
2021/04/28 04:10:45;;;;;;;15.85;11.50;;;;;;;3.52;100.00;99254.53;1773896;80;21476;-61
2021/04/28 04:13:17;;;;;;;15.50;11.30;;;;;;;3.53;100.00;99263.23;1774597;79;21575;-60
2021/04/28 04:15:50;;;;;;;16.82;10.28;;;;;;;3.54;100.00;99258.48;1774608;80;21190;-60
2021/04/28 04:18:21;;;;;;;16.20;9.80;;;;;;;3.60;100.00;99261.23;1760900;81;20986;-61
2021/04/28 04:20:53;;;;;;;14.05;11.12;;;;;;;3.67;100.00;99262.71;1774133;79;20959;-61
2021/04/28 04:23:25;;;;;;;16.70;10.68;;;;;;;3.75;100.00;99267.67;1773677;79;20909;-61
2021/04/28 04:26:15;;;;;;;14.78;10.78;;;;;;;3.81;100.00;99268.27;1774071;81;20939;-60
2021/04/28 04:29:00;;;;;;;14.63;10.13;;;;;;;3.88;100.00;99264.95;1778960;80;21421;-60
2021/04/28 04:31:39;;;;;;;17.15;10.98;;;;;;;3.97;100.00;99260.36;1773877;79;20966;-62
2021/04/28 04:34:17;;;;;;;16.35;10.32;;;;;;;4.05;100.00;99267.50;1754737;79;20947;-61
2021/04/28 04:37:06;;;;;;;15.58;10.53;;;;;;;4.14;100.00;99268.55;1774060;79;20950;-60
2021/04/28 04:39:55;;;;;;;16.67;10.63;;;;;;;4.20;100.00;99268.25;1774087;79;20908;-61
2021/04/28 04:42:33;;;;;;;14.18;10.75;;;;;;;4.27;100.00;99274.52;1754670;80;21401;-61
2021/04/28 04:45:20;;;;;;;16.25;11.03;;;;;;;4.31;100.00;99275.03;1735530;82;21208;-61
2021/04/28 04:47:51;;;;;;;12.63;10.58;;;;;;;4.36;100.00;99273.39;1762943;80;21057;-61
2021/04/28 04:50:22;;;;;;;15.53;11.03;;;;;;;4.40;100.00;99277.83;1774012;81;20931;-61
2021/04/28 04:52:52;;;;;;;17.85;11.12;;;;;;;4.43;100.00;99286.61;1774011;80;21469;-61
2021/04/28 04:55:22;;;;;;;15.13;11.00;;;;;;;4.47;100.00;99288.86;1774063;81;21345;-60
2021/04/28 04:57:52;;;;;;;12.50;10.58;;;;;;;4.49;100.00;99294.11;1773972;79;21391;-61
2021/04/28 05:00:22;;;;;;;16.57;11.78;;;;;;;4.53;100.00;99298.55;1774022;79;21066;-61
2021/04/28 05:02:51;;;;;;;13.58;10.88;;;;;;;4.60;100.00;99302.62;1774023;81;20931;-61
2021/04/28 05:05:21;;;;;;;15.98;11.73;;;;;;;4.66;100.00;99300.13;1773948;79;21505;-61
2021/04/28 05:07:51;;;;;;;16.10;12.45;;;;;;;4.76;100.00;99306.45;1774029;79;21138;-61
2021/04/28 05:10:20;;;;;;;19.95;13.45;;;;;;;4.86;100.00;99309.69;1773987;79;20947;-61
2021/04/28 05:12:49;;;;;;;17.73;13.03;;;;;;;4.95;100.00;99308.55;1774001;79;20960;-61
2021/04/28 05:15:20;;;;;;;17.10;12.70;;;;;;;5.09;100.00;99309.23;1774008;79;20920;-61
2021/04/28 05:17:50;;;;;;;16.42;12.50;;;;;;;5.23;100.00;99311.27;1774020;81;20919;-61
2021/04/28 05:20:19;;;;;;;19.45;12.90;;;;;;;5.36;100.00;99314.55;1774003;79;21406;-61
2021/04/28 05:22:49;;;;;;;17.48;12.28;;;;;;;5.47;100.00;99312.54;1774047;81;21530;-61
2021/04/28 05:25:20;;;;;;;15.48;12.47;;;;;;;5.59;100.00;99312.31;1772899;80;20966;-61
2021/04/28 05:27:50;;;;;;;17.62;11.88;;;;;;;5.71;100.00;99312.09;1773967;79;20923;-61
2021/04/28 05:30:20;;;;;;;14.18;11.35;;;;;;;5.84;100.00;99316.66;1774015;79;21465;-61
2021/04/28 05:32:49;;;;;;;15.15;11.70;;;;;;;5.97;100.00;99317.32;1774102;79;22275;-61
2021/04/28 05:35:19;;;;;;;15.53;10.65;;;;;;;6.10;100.00;99317.95;1773982;79;20947;-61
2021/04/28 05:37:49;;;;;;;13.85;10.53;;;;;;;6.21;100.00;99324.68;1774062;81;20951;-61
2021/04/28 05:40:18;;;;;;;14.03;11.08;;;;;;;6.35;100.00;99323.13;1773967;79;20931;-61
2021/04/28 05:42:47;;;;;;;14.80;10.50;;;;;;;6.48;100.00;99321.55;1774019;79;20942;-61
2021/04/28 05:45:16;;;;;;;14.20;9.75;;;;;;;6.60;100.00;99325.63;1773988;79;21371;-62
2021/04/28 05:47:46;;;;;;;13.48;10.48;;;;;;;6.69;100.00;99324.46;1774040;81;20967;-61
2021/04/28 05:50:16;;;;;;;13.03;10.03;;;;;;;6.81;100.00;99327.23;1774028;81;20920;-61
2021/04/28 05:52:45;;;;;;;13.65;10.45;;;;;;;6.95;100.00;99329.57;1773984;79;20931;-61
2021/04/28 05:55:15;;;;;;;12.88;9.93;;;;;;;7.09;100.00;99332.77;1774125;79;21501;-61
2021/04/28 05:57:44;;;;;;;12.50;8.90;;;;;;;7.23;100.00;99325.52;1774035;81;22246;-61
2021/04/28 06:00:15;;;;;;;10.55;7.20;;;;;;;7.39;100.00;99334.86;1773987;81;21093;-61
2021/04/28 06:02:44;;;;;;;9.00;7.03;;;;;;;7.52;100.00;99333.67;1773977;79;20936;-61
2021/04/28 06:05:14;;;;;;;9.30;6.60;;;;;;;7.67;100.00;99332.95;1761122;81;21464;-61
2021/04/28 06:07:44;;;;;;;8.95;6.95;;;;;;;7.83;100.00;99336.58;1789383;78;21346;-61
2021/04/28 06:10:14;;;;;;;8.88;6.78;;;;;;;7.98;100.00;99331.44;1790590;78;21191;-61
2021/04/28 06:12:45;;;;;;;8.68;6.50;;;;;;;8.14;100.00;99338.58;1790618;79;20941;-61
2021/04/28 06:15:15;;;;;;;7.83;6.67;;;;;;;8.29;100.00;99331.66;1790580;80;21493;-61
2021/04/28 06:17:44;;;;;;;10.60;6.42;;;;;;;8.44;100.00;99332.66;1790627;80;21556;-61
2021/04/28 06:20:15;;;;;;;9.73;6.45;;;;;;;8.57;100.00;99336.26;1790550;80;20966;-61
2021/04/28 06:22:45;;;;;;;8.03;5.87;;;;;;;8.67;100.00;99331.92;1790619;78;21202;-61
2021/04/28 06:25:15;;;;;;;7.75;6.45;;;;;;;8.82;100.00;99338.55;1790525;78;21104;-60
2021/04/28 06:27:44;;;;;;;9.55;6.95;;;;;;;8.92;100.00;99339.02;1790631;78;21533;-61
2021/04/28 06:30:14;;;;;;;8.00;6.20;;;;;;;9.02;100.00;99338.22;1790591;79;21548;-61
2021/04/28 06:32:45;;;;;;;10.70;6.53;;;;;;;9.15;100.00;99336.05;1790637;78;20962;-60
2021/04/28 06:35:14;;;;;;;8.13;5.87;;;;;;;9.28;100.00;99334.77;1790533;79;21408;-61
2021/04/28 06:37:43;;;;;;;8.73;5.65;;;;;;;9.39;100.00;99331.71;1790486;78;20946;-61
2021/04/28 06:40:13;;;;;;;7.87;5.35;;;;;;;9.51;100.00;99330.44;1790523;79;20930;-61
2021/04/28 06:42:43;;;;;;;6.25;5.62;;;;;;;9.60;100.00;99329.13;1790599;79;21486;-60
2021/04/28 06:45:12;;;;;;;6.97;5.30;;;;;;;9.70;100.00;99336.59;1790539;79;20906;-61
2021/04/28 06:47:42;;;;;;;8.13;5.62;;;;;;;9.81;100.00;99332.20;1790523;80;21144;-61
2021/04/28 06:50:11;;;;;;;6.08;4.05;;;;;;;9.91;98.85;99330.00;1790554;80;21485;-61
2021/04/28 06:52:44;;;;;;;5.50;4.17;;;;;;;9.99;95.86;99327.39;1790510;79;20931;-61
2021/04/28 06:55:12;;;;;;;5.42;4.55;;;;;;;10.02;93.53;99331.34;1790490;78;20887;-61
2021/04/28 06:57:43;;;;;;;7.72;4.37;;;;;;;10.05;92.07;99337.48;1789492;79;20930;-61
2021/04/28 07:00:13;;;;;;;5.25;4.45;;;;;;;10.10;88.52;99341.00;1790606;78;22338;-61
2021/04/28 07:02:42;;;;;;;6.00;4.05;;;;;;;10.16;86.24;99334.84;1790469;80;20907;-61
2021/04/28 07:05:12;;;;;;;4.55;2.25;;;;;;;10.24;84.20;99335.73;1790515;79;20930;-61
2021/04/28 07:07:41;;;;;;;3.58;2.17;;;;;;;10.38;82.58;99342.30;1790387;78;20935;-61
2021/04/28 07:10:11;;;;;;;2.72;2.45;;;;;;;10.45;79.48;99340.55;1790526;79;21053;-61
2021/04/28 07:12:41;;;;;;;3.22;2.75;;;;;;;10.54;76.66;99338.77;1771244;80;21376;-61
2021/04/28 07:15:11;;;;;;;3.52;2.17;;;;;;;10.63;77.23;99332.58;1790444;78;20966;-61
2021/04/28 07:17:40;;;;;;;4.50;2.05;;;;;;;10.71;74.78;99336.06;1790587;78;20930;-61
2021/04/28 07:20:09;;;;;;;2.47;1.95;;;;;;;10.69;69.33;99330.80;1790475;80;20929;-61
2021/04/28 07:22:39;;;;;;;3.85;2.62;;;;;;;10.56;65.84;99338.31;1790604;80;21445;-61
2021/04/28 07:25:10;;;;;;;4.03;3.17;;;;;;;10.54;64.56;99332.17;1790492;78;21512;-61
2021/04/28 07:27:42;;;;;;;4.28;3.47;;;;;;;10.56;66.04;99338.31;1790391;80;20946;-61
2021/04/28 07:30:12;;;;;;;6.90;3.62;;;;;;;10.59;67.45;99339.63;1790600;80;21453;-60
2021/04/28 07:32:41;;;;;;;4.08;3.20;;;;;;;10.65;67.33;99331.69;1790466;79;20919;-61
2021/04/28 07:35:13;;;;;;;4.17;3.77;;;;;;;10.69;65.85;99329.92;1790440;78;21481;-61
2021/04/28 07:37:43;;;;;;;5.67;3.37;;;;;;;10.71;65.27;99331.67;1790600;80;22224;-61
2021/04/28 07:40:12;;;;;;;4.65;3.12;;;;;;;10.72;65.18;99326.83;1790399;80;20899;-60
2021/04/28 07:42:41;;;;;;;4.35;3.50;;;;;;;10.72;65.96;99335.19;1790482;80;20938;-61
2021/04/28 07:45:11;;;;;;;5.50;2.60;;;;;;;10.75;66.94;99331.66;1790498;80;21084;-61
2021/04/28 07:47:41;;;;;;;2.95;2.30;;;;;;;10.80;64.52;99328.55;1790501;78;20931;-61
2021/04/28 07:50:13;;;;;;;4.15;1.80;;;;;;;10.85;62.97;99332.92;1790537;79;21304;-61
2021/04/28 07:52:42;;;;;;;2.60;1.90;;;;;;;10.89;62.76;99328.55;1790504;80;20894;-61
2021/04/28 07:55:11;;;;;;;2.98;2.17;;;;;;;10.95;60.84;99326.75;1790640;80;20939;-61
2021/04/28 07:57:41;;;;;;;3.02;2.25;;;;;;;11.05;59.91;99330.22;1790638;78;21511;-61
2021/04/28 08:00:11;;;;;;;3.05;2.17;;;;;;;11.12;59.09;99329.30;1790734;80;20938;-61
2021/04/28 08:02:40;;;;;;;3.17;2.10;;;;;;;11.18;58.15;99327.07;1790660;80;21179;-61
2021/04/28 08:05:11;;;;;;;2.30;1.98;;;;;;;11.20;57.32;99334.54;1790569;79;21083;-61
2021/04/28 08:07:40;;;;;;;3.95;2.30;;;;;;;11.18;55.14;99325.31;1790502;80;21485;-61
2021/04/28 08:10:11;;;;;;;5.80;2.00;;;;;;;11.18;56.05;99330.59;1790565;80;20930;-61
2021/04/28 08:12:40;;;;;;;2.10;1.80;;;;;;;11.21;56.01;99326.61;1790657;79;20922;-61
2021/04/28 08:15:10;;;;;;;2.58;1.87;;;;;;;11.23;56.00;99328.80;1790656;78;21262;-61
2021/04/28 08:17:42;;;;;;;2.42;1.77;;;;;;;11.23;55.97;99318.67;1790575;80;20978;-61
2021/04/28 08:20:12;;;;;;;2.40;2.05;;;;;;;11.29;56.44;99323.48;1790776;78;20939;-61
2021/04/28 08:22:43;;;;;;;3.98;1.62;;;;;;;11.37;54.85;99316.86;1790583;80;20938;-61
2021/04/28 08:25:14;;;;;;;1.75;1.55;;;;;;;11.49;55.57;99319.41;1790678;78;20946;-61
2021/04/28 08:27:42;;;;;;;3.37;1.47;;;;;;;11.56;55.20;99315.84;1790681;80;21194;-61
2021/04/28 08:30:13;;;;;;;1.92;1.67;;;;;;;11.64;55.13;99317.98;1790577;78;20954;-62
2021/04/28 08:32:42;;;;;;;1.77;1.40;;;;;;;11.73;55.02;99326.27;1790604;80;20898;-61
2021/04/28 08:35:16;;;;;;;2.00;1.50;;;;;;;11.80;54.01;99320.52;1790616;80;20953;-61
2021/04/28 08:37:45;;;;;;;2.72;1.82;;;;;;;11.85;54.33;99322.27;1790790;78;20919;-61
2021/04/28 08:40:16;;;;;;;8.83;2.20;;;;;;;11.88;52.97;99326.21;1790676;80;22250;-61
2021/04/28 08:42:45;;;;;;;2.15;1.40;;;;;;;11.86;53.67;99324.47;1790642;78;20902;-61
2021/04/28 08:45:14;;;;;;;1.90;1.20;;;;;;;11.89;53.16;99329.28;1790666;78;21478;-62
2021/04/28 08:47:43;;;;;;;2.33;1.50;;;;;;;11.93;51.54;99321.76;1790531;78;20907;-61
2021/04/28 08:50:14;;;;;;;1.90;1.70;;;;;;;12.03;51.28;99317.27;1790606;78;21449;-61
2021/04/28 08:52:43;;;;;;;1.67;1.30;;;;;;;12.04;49.88;99317.69;1771228;80;21219;-61
2021/04/28 08:55:13;;;;;;;2.27;1.50;;;;;;;12.03;48.89;99316.39;1790459;80;20962;-62
2021/04/28 08:57:42;;;;;;;3.22;1.62;;;;;;;11.98;48.62;99318.62;1790634;78;21509;-61
2021/04/28 09:00:13;;;;;;;1.82;1.50;;;;;;;11.98;48.64;99317.75;1790504;78;20918;-62
2021/04/28 09:02:55;;;;;;;2.75;1.50;;;;;;;12.02;48.69;99310.67;1790299;80;21097;-61
2021/04/28 09:05:24;;;;;;;3.62;1.60;;;;;;;12.10;50.15;99314.11;1789601;78;21354;-61
2021/04/28 09:07:54;;;;;;;2.83;1.40;;;;;;;12.21;50.44;99313.11;1789464;80;21115;-63
2021/04/28 09:10:27;;;;;;;2.12;1.40;;;;;;;12.30;49.83;99306.88;1790047;78;20947;-70
2021/04/28 09:13:04;;;;;;;3.35;1.35;;;;;;;12.37;50.15;99307.25;1790966;80;20883;-69
2021/04/28 09:15:44;;;;;;;1.57;1.30;;;;;;;12.40;49.43;99297.95;1790888;80;20990;-71
2021/04/28 09:18:15;;;;;;;1.67;1.22;;;;;;;12.54;49.59;99296.47;1790787;80;21365;-70
2021/04/28 09:21:02;;;;;;;2.30;1.37;;;;;;;12.60;48.68;99310.50;1790809;80;21596;-71
2021/04/28 09:23:37;;;;;;;2.08;1.30;;;;;;;12.53;47.58;99299.56;1790943;78;21190;-71
2021/04/28 09:26:23;;;;;;;1.07;0.82;;;;;;;12.62;47.78;99295.94;1791048;80;21480;-71
2021/04/28 09:29:10;;;;;;;1.47;1.12;;;;;;;12.81;47.93;99305.43;1743671;82;21114;-71
2021/04/28 09:32:06;;;;;;;1.57;1.40;;;;;;;13.03;47.50;99307.80;1841726;77;22630;-72
2021/04/28 09:34:39;;;;;;;1.90;1.70;;;;;;;13.11;47.52;99306.79;1813821;79;21009;-70
2021/04/28 09:37:14;;;;;;;3.33;1.50;;;;;;;13.22;46.93;99304.90;1817540;79;21354;-69
2021/04/28 09:39:48;;;;;;;3.55;1.70;;;;;;;13.32;46.97;99304.80;1817408;78;20951;-68
2021/04/28 09:42:21;;;;;;;2.92;1.57;;;;;;;13.40;46.48;99301.13;1817575;78;20910;-68
2021/04/28 09:44:51;;;;;;;2.00;1.55;;;;;;;13.52;46.38;99300.94;1817419;79;20973;-69
2021/04/28 09:47:22;;;;;;;3.27;1.80;;;;;;;13.69;46.70;99291.39;1817326;78;20978;-64
2021/04/28 09:50:03;;;;;;;1.80;1.42;;;;;;;13.80;45.68;99297.42;1817298;79;21185;-64
2021/04/28 09:52:44;;;;;;;2.33;1.50;;;;;;;13.86;44.92;99288.48;1817368;78;21001;-66
2021/04/28 09:55:15;;;;;;;2.20;1.75;;;;;;;13.95;45.27;99294.08;1817374;78;20930;-66
2021/04/28 09:57:51;;;;;;;2.05;1.65;;;;;;;14.02;45.81;99283.79;1817168;78;20910;-66
2021/04/28 10:00:27;;;;;;;2.42;1.90;;;;;;;14.11;45.22;99284.50;1817417;78;21086;-66
2021/04/28 10:03:03;;;;;;;2.50;1.90;;;;;;;14.16;45.51;99286.61;1817422;79;21398;-63
2021/04/28 10:05:45;;;;;;;2.92;1.80;;;;;;;14.29;43.80;99273.15;1817430;79;21010;-65
2021/04/28 10:08:21;;;;;;;3.72;1.72;;;;;;;14.40;42.87;99276.47;1817436;79;21065;-65
2021/04/28 10:10:52;;;;;;;3.02;1.85;;;;;;;14.51;43.75;99267.88;1816699;78;21592;-65
2021/04/28 10:13:22;;;;;;;2.47;2.05;;;;;;;14.51;43.97;99277.61;1817586;78;21501;-65
2021/04/28 10:15:52;;;;;;;2.62;1.85;;;;;;;14.47;43.61;99271.49;1817226;79;21250;-65
2021/04/28 10:18:23;;;;;;;2.33;2.00;;;;;;;14.48;44.56;99269.26;1817131;79;21012;-65
2021/04/28 10:20:54;;;;;;;2.75;1.80;;;;;;;14.52;45.22;99268.75;1817399;78;20977;-66
2021/04/28 10:23:25;;;;;;;2.42;2.10;;;;;;;14.57;45.23;99266.88;1816230;79;20982;-66
2021/04/28 10:25:56;;;;;;;2.17;1.75;;;;;;;14.65;46.17;99268.91;1816334;78;21060;-67
2021/04/28 10:28:26;;;;;;;3.47;2.05;;;;;;;14.70;46.10;99261.31;1816317;78;21380;-66
2021/04/28 10:30:55;;;;;;;1.95;1.72;;;;;;;14.73;44.15;99255.94;1815392;78;21080;-67
2021/04/28 10:33:29;;;;;;;3.67;2.00;;;;;;;14.74;43.64;99256.80;1815421;77;20926;-66
2021/04/28 10:36:00;;;;;;;2.35;1.72;;;;;;;14.91;43.28;99255.11;1815097;77;20986;-66
2021/04/28 10:38:32;;;;;;;4.00;1.98;;;;;;;15.09;43.81;99254.25;1743453;79;21552;-66
2021/04/28 10:41:01;;;;;;;5.50;1.90;;;;;;;15.25;44.43;99251.27;1815421;79;21559;-66
2021/04/28 10:43:37;;;;;;;2.35;2.15;;;;;;;15.31;45.21;99255.11;1814783;77;20977;-67
2021/04/28 10:46:21;;;;;;;5.08;2.12;;;;;;;15.09;44.29;99256.91;1814837;79;20943;-69
2021/04/28 10:48:52;;;;;;;3.02;2.15;;;;;;;14.79;43.64;99257.13;1810246;77;21457;-67
2021/04/28 10:51:38;;;;;;;3.12;1.70;;;;;;;14.70;43.60;99252.47;1814801;79;20938;-65
2021/04/28 10:54:27;;;;;;;2.58;2.20;;;;;;;14.71;43.45;99252.89;1814797;79;21355;-66
2021/04/28 10:57:07;;;;;;;2.75;1.90;;;;;;;14.56;43.63;99250.52;1814804;77;20934;-66
2021/04/28 10:59:44;;;;;;;2.42;1.90;;;;;;;14.51;43.95;99247.97;1814814;77;20918;-66
2021/04/28 11:02:13;;;;;;;2.58;2.37;;;;;;;14.54;43.90;99243.05;1814798;79;20982;-65
2021/04/28 11:04:46;;;;;;;3.60;2.27;;;;;;;14.56;43.69;99243.43;1759089;79;21087;-65
2021/04/28 11:07:43;;;;;;;4.05;2.10;;;;;;;14.43;43.99;99249.90;1814804;77;21184;-66
2021/04/28 11:10:36;;;;;;;3.92;2.15;;;;;;;14.34;44.93;99241.64;1724919;81;21191;-65
2021/04/28 11:13:17;;;;;;;2.85;2.10;;;;;;;14.38;45.62;99246.43;1810376;79;21481;-66
2021/04/28 11:15:53;;;;;;;4.00;2.17;;;;;;;14.40;45.33;99240.64;1814759;78;21163;-65
2021/04/28 11:18:35;;;;;;;2.30;2.10;;;;;;;14.46;45.42;99236.56;1814851;77;20919;-65
2021/04/28 11:21:23;;;;;;;4.97;2.13;;;;;;;14.58;45.27;99228.34;1815032;77;21411;-65
2021/04/28 11:24:14;;;;;;;2.80;1.87;;;;;;;14.71;45.10;99229.87;1814725;79;21457;-67
2021/04/28 11:26:49;;;;;;;2.70;1.75;;;;;;;14.73;44.31;99234.69;1814742;78;21053;-66
2021/04/28 11:29:21;;;;;;;3.75;1.50;;;;;;;14.67;44.46;99233.95;1814732;79;20934;-67
2021/04/28 11:31:57;;;;;;;1.82;1.65;;;;;;;14.71;44.06;99227.66;1807600;78;20954;-68
2021/04/28 11:34:34;;;;;;;3.12;2.47;;;;;;;14.82;44.59;99226.98;1805685;78;21176;-68
2021/04/28 11:37:09;;;;;;;3.47;2.08;;;;;;;14.93;45.68;99234.25;1805603;78;20922;-68
2021/04/28 11:39:42;;;;;;;2.90;2.15;;;;;;;14.99;45.90;99228.80;1782024;79;21029;-68
2021/04/28 11:42:20;;;;;;;2.52;1.70;;;;;;;15.16;45.61;99219.14;1805575;78;20990;-67
2021/04/28 11:44:57;;;;;;;2.72;1.80;;;;;;;15.36;45.84;99224.85;1805684;79;20994;-69
2021/04/28 11:47:28;;;;;;;2.33;1.70;;;;;;;15.44;45.33;99227.32;1805667;79;21190;-69
2021/04/28 11:49:59;;;;;;;1.95;1.60;;;;;;;15.42;43.45;99219.84;1805572;78;20934;-69
2021/04/28 11:52:34;;;;;;;2.77;1.75;;;;;;;15.48;42.22;99217.48;1805641;78;20918;-69
2021/04/28 11:55:05;;;;;;;2.12;1.70;;;;;;;15.50;40.92;99218.32;1805622;78;21029;-68